Time;durP1;ratioP1;P1;durP2;ratioP2;P2;SDS_P1;SDS_P2;PMS_P1;PMS_P2;Temp;Humidity;BMP_temperature;BMP_pressure;BME280_temperature;BME280_humidity;BME280_pressure;Samples;Min_cycle;Max_cycle;Signal;HPM_P1;HPM_P2
2023/05/02 00:01:35;;;;;;;8.95;5.35;;;15.30;94.00;;;;;;10365133;28;20906;-85
2023/05/02 00:06:35;;;;;;;9.00;4.70;;;15.20;94.00;;;;;;10359048;28;20014;-84
2023/05/02 00:11:36;;;;;;;9.63;4.60;;;15.20;94.00;;;;;;10366594;28;20397;-85
2023/05/02 00:16:36;;;;;;;6.45;4.65;;;15.20;94.00;;;;;;10359774;28;20454;-84
2023/05/02 00:21:42;;;;;;;8.52;4.38;;;15.20;94.00;;;;;;10368177;28;20025;-84
2023/05/02 00:26:43;;;;;;;7.03;4.10;;;15.20;94.10;;;;;;10363944;28;20021;-85
2023/05/02 00:31:43;;;;;;;5.70;3.80;;;15.30;94.10;;;;;;10353680;28;20041;-85
2023/05/02 00:36:44;;;;;;;6.78;3.58;;;15.10;94.10;;;;;;10363866;28;20041;-85
2023/05/02 00:41:45;;;;;;;6.32;3.60;;;15.30;94.20;;;;;;10358438;28;20045;-85
2023/05/02 00:46:45;;;;;;;6.00;3.65;;;15.10;94.20;;;;;;10360925;28;20026;-85
2023/05/02 00:51:46;;;;;;;5.43;3.13;;;15.10;94.20;;;;;;10358526;28;20112;-84
2023/05/02 00:56:47;;;;;;;5.07;3.00;;;15.30;94.30;;;;;;10345540;28;20025;-84
2023/05/02 01:02:00;;;;;;;5.00;2.53;;;15.00;94.20;;;;;;10362905;28;20490;-85
2023/05/02 01:07:29;;;;;;;4.82;2.90;;;15.00;94.30;;;;;;10349874;28;20486;-85
2023/05/02 01:12:47;;;;;;;5.38;2.35;;;15.00;94.30;;;;;;10367151;28;20025;-85
2023/05/02 01:17:51;;;;;;;3.42;2.40;;;15.00;94.30;;;;;;10362557;28;20515;-84
2023/05/02 01:22:53;;;;;;;3.78;2.17;;;15.00;94.30;;;;;;10360716;28;20093;-85
2023/05/02 01:28:04;;;;;;;6.25;2.72;;;15.20;94.40;;;;;;10366666;28;20299;-85
2023/05/02 01:33:06;;;;;;;4.40;2.53;;;14.90;94.30;;;;;;10360650;28;20438;-83
2023/05/02 01:38:07;;;;;;;3.90;2.28;;;14.90;94.30;;;;;;10363289;28;20457;-83
2023/05/02 01:43:08;;;;;;;3.80;2.55;;;14.90;94.30;;;;;;10361348;28;20023;-83
2023/05/02 01:48:10;;;;;;;2.88;2.05;;;15.10;94.40;;;;;;10361294;28;20014;-83
2023/05/02 01:53:13;;;;;;;4.20;2.38;;;14.80;94.30;;;;;;10361901;28;20049;-83
2023/05/02 01:58:16;;;;;;;2.72;1.83;;;14.80;94.30;;;;;;10360379;28;20018;-83
2023/05/02 02:03:17;;;;;;;4.50;1.95;;;14.90;94.30;;;;;;10364283;28;20493;-83
2023/05/02 02:08:18;;;;;;;3.05;1.98;;;15.00;94.30;;;;;;10357907;28;20397;-83
2023/05/02 02:13:29;;;;;;;4.28;1.90;;;14.80;94.60;;;;;;10365653;28;20021;-83
2023/05/02 02:18:36;;;;;;;3.38;1.70;;;14.70;94.30;;;;;;10356195;28;20034;-83
2023/05/02 02:23:42;;;;;;;3.45;2.10;;;14.70;94.30;;;;;;10367765;28;20067;-83
2023/05/02 02:28:42;;;;;;;5.18;1.83;;;14.90;94.30;;;;;;10364410;28;20033;-83
2023/05/02 02:33:43;;;;;;;5.28;2.35;;;14.70;94.30;;;;;;10368685;28;20044;-83
2023/05/02 02:39:10;;;;;;;2.45;1.40;;;14.70;94.30;;;;;;10377968;28;20022;-83
2023/05/02 02:44:27;;;;;;;2.47;1.77;;;14.70;94.30;;;;;;10365247;28;20026;-83
2023/05/02 02:49:48;;;;;;;3.00;1.70;;;14.70;94.30;;;;;;10351973;28;20025;-83
2023/05/02 02:54:51;;;;;;;2.17;1.60;;;14.60;94.30;;;;;;10358217;28;20220;-83
2023/05/02 03:00:01;;;;;;;4.75;1.83;;;14.60;94.20;;;;;;10354417;28;20022;-83
2023/05/02 03:05:04;;;;;;;3.05;1.40;;;14.60;94.30;;;;;;10350255;28;20033;-83
2023/05/02 03:10:05;;;;;;;2.65;1.70;;;14.50;94.30;;;;;;10360581;28;20501;-83
2023/05/02 03:15:32;;;;;;;4.50;1.55;;;14.50;94.30;;;;;;10360684;28;20145;-83
2023/05/02 03:20:33;;;;;;;4.22;1.70;;;14.50;94.30;;;;;;10356730;28;20045;-83
2023/05/02 03:25:35;;;;;;;4.30;1.50;;;14.40;94.30;;;;;;10353596;28;20058;-83
2023/05/02 03:30:39;;;;;;;2.67;1.70;;;14.40;94.30;;;;;;10346997;28;20041;-83
2023/05/02 03:35:41;;;;;;;3.38;1.70;;;14.90;94.40;;;;;;10353681;28;20054;-83
2023/05/02 03:40:41;;;;;;;4.03;1.67;;;14.80;94.40;;;;;;10356257;28;20565;-82
2023/05/02 03:45:42;;;;;;;3.55;1.58;;;14.80;94.40;;;;;;10355242;28;20024;-83
2023/05/02 03:50:43;;;;;;;4.00;1.63;;;15.10;94.50;;;;;;10350094;28;20026;-83
2023/05/02 03:55:44;;;;;;;5.00;1.85;;;14.30;94.30;;;;;;10353969;28;20112;-83
2023/05/02 04:00:46;;;;;;;3.97;1.80;;;14.30;94.30;;;;;;10351283;28;20041;-83
2023/05/02 04:05:47;;;;;;;4.65;1.73;;;14.20;94.30;;;;;;10358924;28;20019;-83
2023/05/02 04:10:50;;;;;;;7.15;1.70;;;14.60;94.70;;;;;;10334959;28;20497;-83
2023/05/02 04:15:50;;;;;;;3.20;1.63;;;14.60;94.40;;;;;;10352541;28;20025;-83
2023/05/02 04:20:51;;;;;;;7.45;1.73;;;14.60;94.40;;;;;;10349482;28;20021;-83
2023/05/02 04:25:53;;;;;;;4.07;1.73;;;14.10;94.20;;;;;;10351199;28;20064;-83
2023/05/02 04:30:55;;;;;;;5.20;1.67;;;14.10;94.20;;;;;;10354919;28;20076;-83
2023/05/02 04:35:56;;;;;;;10.65;1.90;;;14.10;94.20;;;;;;10353393;28;20033;-83
2023/05/02 04:40:56;;;;;;;5.82;1.88;;;14.10;94.20;;;;;;10356319;28;20030;-83
2023/05/02 04:45:57;;;;;;;4.80;1.88;;;14.00;94.20;;;;;;10358522;28;20013;-83
2023/05/02 04:50:58;;;;;;;4.15;1.52;;;14.70;94.30;;;;;;10356185;28;20076;-83
2023/05/02 04:55:59;;;;;;;2.53;1.15;;;14.00;94.20;;;;;;10360299;28;20028;-83
2023/05/02 05:01:00;;;;;;;2.53;1.10;;;14.00;94.20;;;;;;10353579;28;20061;-83
2023/05/02 05:06:01;;;;;;;3.47;1.60;;;14.50;94.30;;;;;;10359242;28;20442;-83
2023/05/02 05:11:03;;;;;;;4.70;1.77;;;14.20;94.20;;;;;;10368414;28;20095;-83
2023/05/02 05:16:04;;;;;;;5.85;1.73;;;14.00;94.10;;;;;;10356243;28;20072;-83
2023/05/02 05:21:06;;;;;;;7.95;2.13;;;13.90;94.10;;;;;;10350577;28;20030;-83
2023/05/02 05:26:11;;;;;;;4.15;1.88;;;13.90;94.00;;;;;;10359524;28;20504;-82
2023/05/02 05:31:12;;;;;;;4.05;1.30;;;13.90;94.00;;;;;;10357069;28;20052;-83
2023/05/02 05:36:13;;;;;;;4.07;1.60;;;14.00;94.00;;;;;;10334263;28;20121;-84
2023/05/02 05:41:14;;;;;;;4.60;1.20;;;13.90;94.00;;;;;;10360364;28;20037;-84
2023/05/02 05:46:15;;;;;;;6.13;1.70;;;13.80;94.00;;;;;;10358662;28;20390;-83
2023/05/02 05:51:16;;;;;;;3.13;1.30;;;13.80;94.00;;;;;;10360765;28;20053;-84
2023/05/02 05:56:17;;;;;;;4.57;1.73;;;13.80;94.00;;;;;;10372445;28;20547;-84
2023/05/02 06:01:19;;;;;;;2.33;1.10;;;14.30;94.10;;;;;;10356174;28;20029;-84
2023/05/02 06:06:20;;;;;;;6.93;2.13;;;14.00;93.90;;;;;;10353481;28;20284;-85
2023/05/02 06:11:20;;;;;;;3.28;1.30;;;13.80;93.80;;;;;;10361919;28;20401;-84
2023/05/02 06:16:21;;;;;;;2.50;1.40;;;13.90;93.80;;;;;;10360680;28;20042;-84
2023/05/02 06:21:22;;;;;;;3.33;1.35;;;13.90;93.70;;;;;;10361500;28;20065;-85
2023/05/02 06:26:22;;;;;;;3.25;1.60;;;13.80;93.50;;;;;;10369215;28;20432;-87
2023/05/02 06:31:26;;;;;;;4.68;1.77;;;14.10;93.60;;;;;;10359869;28;20030;-84
2023/05/02 06:36:26;;;;;;;4.47;1.20;;;13.80;93.40;;;;;;10366936;28;20394;-84
2023/05/02 06:41:27;;;;;;;2.78;1.15;;;13.80;93.40;;;;;;10363183;28;20260;-84
2023/05/02 06:46:29;;;;;;;3.38;1.30;;;13.80;93.40;;;;;;10362930;28;20022;-84
2023/05/02 06:51:31;;;;;;;4.32;1.30;;;14.50;93.60;;;;;;10340521;28;20026;-84
2023/05/02 06:56:31;;;;;;;2.65;1.45;;;13.80;93.40;;;;;;10364561;28;20022;-84
2023/05/02 07:01:32;;;;;;;2.47;1.35;;;14.30;93.60;;;;;;10363852;28;20025;-84
2023/05/02 07:06:33;;;;;;;4.00;1.65;;;13.80;93.50;;;;;;10358775;28;20090;-84
2023/05/02 07:11:36;;;;;;;4.00;1.50;;;13.80;93.40;;;;;;10348469;28;20034;-84
2023/05/02 07:16:37;;;;;;;2.08;1.13;;;13.80;93.30;;;;;;10366549;28;20489;-84
2023/05/02 07:21:38;;;;;;;3.22;1.25;;;14.10;93.30;;;;;;10365180;28;20029;-84
2023/05/02 07:26:38;;;;;;;2.92;1.33;;;13.80;93.50;;;;;;10362069;28;20028;-84
2023/05/02 07:31:39;;;;;;;2.38;1.42;;;13.90;93.20;;;;;;10355164;28;20030;-86
2023/05/02 07:36:40;;;;;;;3.88;1.70;;;14.40;93.20;;;;;;10366039;28;20209;-86
2023/05/02 07:41:40;;;;;;;3.33;1.40;;;14.50;93.50;;;;;;10369249;28;20030;-86
2023/05/02 07:46:41;;;;;;;3.83;1.42;;;13.90;93.00;;;;;;10365756;28;20021;-86
2023/05/02 07:51:43;;;;;;;3.15;1.60;;;14.00;93.00;;;;;;10376790;28;20034;-86
2023/05/02 07:56:44;;;;;;;4.72;1.70;;;13.90;93.20;;;;;;10363829;28;20025;-86
2023/05/02 08:01:45;;;;;;;3.03;1.25;;;14.10;93.00;;;;;;10361905;28;20066;-86
2023/05/02 08:06:45;;;;;;;3.22;1.30;;;14.30;93.00;;;;;;10357300;28;20581;-86
2023/05/02 08:11:46;;;;;;;1.55;1.10;;;14.20;93.00;;;;;;10366108;28;20029;-86
2023/05/02 08:16:46;;;;;;;1.80;1.05;;;14.40;93.00;;;;;;10369575;28;20029;-86
2023/05/02 08:21:47;;;;;;;3.67;1.35;;;13.90;92.90;;;;;;10358366;28;20037;-86
2023/05/02 08:26:48;;;;;;;4.45;1.50;;;13.90;92.90;;;;;;10352102;28;20026;-86
2023/05/02 08:31:49;;;;;;;2.28;1.35;;;13.90;92.80;;;;;;10347359;28;20494;-86
2023/05/02 08:36:49;;;;;;;3.25;1.40;;;13.90;92.70;;;;;;10360121;28;20038;-86
2023/05/02 08:41:50;;;;;;;2.55;1.60;;;13.90;92.70;;;;;;10359023;28;20039;-86
2023/05/02 08:46:52;;;;;;;6.18;1.35;;;14.10;92.70;;;;;;10360937;28;20644;-86
2023/05/02 08:51:54;;;;;;;2.53;1.50;;;14.00;92.60;;;;;;10360324;28;20038;-86
2023/05/02 08:56:55;;;;;;;4.55;1.90;;;14.00;92.50;;;;;;10364308;28;20072;-86
2023/05/02 09:02:03;;;;;;;3.70;1.40;;;14.80;92.70;;;;;;10362326;28;20021;-86
2023/05/02 09:07:03;;;;;;;2.05;1.17;;;14.00;92.50;;;;;;10365094;28;20118;-86
2023/05/02 09:12:04;;;;;;;2.20;1.20;;;14.50;92.60;;;;;;10361368;28;20665;-86
2023/05/02 09:17:05;;;;;;;2.42;1.20;;;14.10;92.50;;;;;;10357487;28;20048;-86
2023/05/02 09:22:05;;;;;;;2.30;1.58;;;14.10;92.50;;;;;;10344605;28;20034;-86
2023/05/02 09:27:06;;;;;;;2.72;1.38;;;14.10;92.40;;;;;;10361225;28;20030;-86
2023/05/02 09:32:06;;;;;;;3.20;1.65;;;14.70;92.60;;;;;;10358019;28;20472;-86
2023/05/02 09:37:07;;;;;;;5.60;1.48;;;14.30;92.50;;;;;;10360852;28;20096;-86
2023/05/02 09:42:08;;;;;;;4.00;1.60;;;14.40;92.60;;;;;;10360343;28;20026;-86
2023/05/02 09:47:08;;;;;;;2.65;1.60;;;14.80;92.70;;;;;;10353055;28;20032;-86
2023/05/02 09:52:14;;;;;;;2.28;1.40;;;14.00;92.50;;;;;;10354729;28;20034;-86
2023/05/02 09:57:14;;;;;;;2.10;1.60;;;14.10;92.50;;;;;;10356804;28;20040;-86
2023/05/02 10:02:16;;;;;;;3.58;1.60;;;14.90;92.70;;;;;;10350882;28;20056;-86
2023/05/02 10:07:25;;;;;;;5.40;1.50;;;14.20;92.50;;;;;;10342847;28;20081;-86
2023/05/02 10:12:31;;;;;;;3.70;1.80;;;14.40;92.40;;;;;;10371288;28;20034;-86
2023/05/02 10:17:40;;;;;;;2.63;1.50;;;14.20;92.30;;;;;;10367313;28;20063;-86
2023/05/02 10:22:44;;;;;;;3.95;1.48;;;14.30;92.30;;;;;;10732400;23;20525;-86
2023/05/02 10:28:01;;;;;;;3.35;1.60;;;14.20;92.30;;;;;;10453754;28;20029;-86
2023/05/02 10:33:02;;;;;;;3.90;1.50;;;14.30;92.20;;;;;;10394837;28;20117;-86
2023/05/02 10:38:04;;;;;;;4.35;1.50;;;14.30;92.20;;;;;;10411259;28;20530;-86
2023/05/02 10:43:06;;;;;;;3.13;1.23;;;14.60;92.20;;;;;;10399460;28;20036;-86
2023/05/02 10:48:20;;;;;;;2.20;1.48;;;14.40;92.10;;;;;;10407467;28;20116;-86
2023/05/02 10:53:28;;;;;;;4.85;1.55;;;14.40;92.00;;;;;;10406102;28;20034;-86
2023/05/02 10:58:29;;;;;;;2.05;1.20;;;14.60;91.90;;;;;;10402195;28;20018;-86
2023/05/02 11:03:55;;;;;;;2.53;1.52;;;14.50;91.90;;;;;;10402993;28;20030;-86
2023/05/02 11:09:15;;;;;;;1.23;1.05;;;14.50;91.80;;;;;;10400524;28;20017;-85
2023/05/02 11:14:24;;;;;;;2.22;1.40;;;14.60;91.70;;;;;;10412368;28;20022;-86
2023/05/02 11:19:29;;;;;;;3.13;1.10;;;14.90;91.70;;;;;;10414470;28;20041;-86
2023/05/02 11:24:40;;;;;;;2.10;1.30;;;14.60;91.70;;;;;;10388038;28;20569;-86
2023/05/02 11:29:55;;;;;;;3.17;1.55;;;14.70;91.70;;;;;;10400625;28;20056;-86
2023/05/02 11:34:56;;;;;;;4.28;1.63;;;14.60;91.60;;;;;;10400391;28;20029;-86
2023/05/02 11:40:12;;;;;;;1.90;1.20;;;14.70;91.70;;;;;;10398592;28;20041;-85
2023/05/02 11:45:13;;;;;;;2.80;1.40;;;14.70;91.50;;;;;;10398936;28;20018;-86
2023/05/02 11:50:14;;;;;;;2.55;1.40;;;14.70;91.60;;;;;;10401285;28;20059;-86
2023/05/02 11:55:17;;;;;;;2.10;1.52;;;14.80;91.60;;;;;;10392618;28;20404;-86
2023/05/02 12:00:18;;;;;;;2.42;1.35;;;14.80;91.50;;;;;;10417670;28;20029;-86
2023/05/02 12:05:31;;;;;;;1.38;1.20;;;14.80;91.50;;;;;;10401523;28;20018;-86
2023/05/02 12:10:36;;;;;;;2.45;1.50;;;14.80;91.40;;;;;;10394913;28;20021;-86
2023/05/02 12:15:37;;;;;;;1.92;1.20;;;15.10;91.50;;;;;;10395852;28;20024;-86
2023/05/02 12:20:38;;;;;;;5.03;1.45;;;14.80;91.40;;;;;;10399716;28;20029;-86
2023/05/02 12:25:40;;;;;;;4.00;1.30;;;14.80;91.40;;;;;;10395375;28;20020;-86
2023/05/02 12:30:40;;;;;;;3.05;1.23;;;15.10;91.40;;;;;;10402155;28;20025;-85
2023/05/02 12:35:41;;;;;;;2.20;1.13;;;14.90;91.40;;;;;;10394769;28;20523;-86
2023/05/02 12:40:53;;;;;;;2.17;1.10;;;14.90;91.30;;;;;;10399322;28;20262;-85
2023/05/02 12:46:10;;;;;;;2.45;1.00;;;14.90;91.30;;;;;;10396963;28;20032;-86
2023/05/02 12:51:22;;;;;;;2.42;1.23;;;15.00;91.20;;;;;;10407076;28;20040;-86
2023/05/02 12:56:23;;;;;;;3.10;1.42;;;15.00;91.20;;;;;;10401166;28;20025;-86
2023/05/02 13:01:24;;;;;;;1.95;1.20;;;14.90;91.40;;;;;;10402412;28;20021;-85
2023/05/02 13:06:25;;;;;;;1.73;1.23;;;15.60;91.60;;;;;;10397405;28;20026;-86
2023/05/02 13:11:25;;;;;;;1.17;0.93;;;14.90;91.40;;;;;;10391353;28;20033;-86
2023/05/02 13:16:26;;;;;;;1.77;1.02;;;15.20;91.50;;;;;;10391887;28;20026;-86
2023/05/02 13:21:27;;;;;;;1.67;1.20;;;14.90;91.40;;;;;;10395715;28;20021;-84
2023/05/02 13:26:28;;;;;;;2.45;1.20;;;14.90;91.40;;;;;;10400866;28;20233;-86
2023/05/02 13:31:29;;;;;;;1.35;0.88;;;14.90;91.50;;;;;;10392765;28;20520;-86
2023/05/02 13:36:29;;;;;;;1.52;1.10;;;14.90;91.50;;;;;;10387517;28;20024;-86
2023/05/02 13:41:30;;;;;;;2.20;1.05;;;15.00;91.50;;;;;;10397028;28;20042;-86
2023/05/02 13:46:35;;;;;;;1.48;1.00;;;15.20;91.60;;;;;;10395525;28;20025;-85
2023/05/02 13:51:35;;;;;;;1.90;1.42;;;14.90;91.60;;;;;;10378844;28;20592;-86
2023/05/02 13:56:36;;;;;;;1.38;1.00;;;15.40;91.70;;;;;;10395493;28;20105;-86
2023/05/02 14:01:39;;;;;;;1.50;1.05;;;15.10;91.70;;;;;;10396696;28;20044;-86
2023/05/02 14:06:39;;;;;;;1.92;1.00;;;14.90;91.70;;;;;;10390659;28;20022;-86
2023/05/02 14:11:40;;;;;;;2.92;1.20;;;14.90;91.70;;;;;;10390188;28;20018;-86
2023/05/02 14:16:42;;;;;;;2.17;0.90;;;14.90;91.70;;;;;;10397984;28;20052;-86
2023/05/02 14:21:42;;;;;;;1.80;1.10;;;14.90;91.60;;;;;;10381873;28;20037;-86
2023/05/02 14:26:43;;;;;;;1.67;0.95;;;15.00;91.50;;;;;;10403977;28;20018;-86
2023/05/02 14:31:47;;;;;;;1.42;1.13;;;15.10;91.50;;;;;;10408459;28;20456;-86
2023/05/02 14:36:47;;;;;;;1.77;0.90;;;14.70;91.40;;;;;;10411995;28;20044;-85
2023/05/02 14:41:48;;;;;;;2.10;1.20;;;15.00;91.50;;;;;;10397786;28;20026;-86
2023/05/02 14:46:52;;;;;;;3.22;1.60;;;15.00;91.60;;;;;;10401932;28;20044;-86
2023/05/02 14:51:53;;;;;;;1.20;1.00;;;15.00;91.70;;;;;;10407043;28;20029;-86
2023/05/02 14:56:54;;;;;;;1.50;0.93;;;14.90;91.70;;;;;;10420923;28;20436;-85
2023/05/02 15:01:54;;;;;;;2.67;1.20;;;15.00;91.80;;;;;;10407832;28;20017;-85
2023/05/02 15:06:55;;;;;;;2.20;1.08;;;15.20;91.90;;;;;;10409684;28;20022;-85
2023/05/02 15:11:56;;;;;;;1.23;1.00;;;14.80;91.80;;;;;;10419491;28;20096;-84
2023/05/02 15:16:57;;;;;;;1.95;1.05;;;14.80;91.70;;;;;;10419266;28;20056;-82
2023/05/02 15:21:57;;;;;;;1.80;1.00;;;14.90;91.70;;;;;;10408713;28;20505;-88
2023/05/02 15:26:58;;;;;;;1.02;0.85;;;14.80;91.60;;;;;;10405104;28;20009;-85
2023/05/02 15:31:59;;;;;;;1.98;1.13;;;14.90;91.70;;;;;;10397662;28;20109;-82
2023/05/02 15:37:00;;;;;;;1.67;0.90;;;15.00;91.60;;;;;;10424502;28;20462;-83
2023/05/02 15:42:04;;;;;;;2.70;0.80;;;15.10;90.90;;;;;;10403597;28;20021;-81
2023/05/02 15:47:07;;;;;;;1.23;0.73;;;15.10;90.20;;;;;;10401586;28;20107;-83
2023/05/02 15:52:07;;;;;;;3.30;1.00;;;15.10;90.00;;;;;;10399327;28;20056;-82
2023/05/02 15:57:09;;;;;;;1.88;0.82;;;15.00;89.40;;;;;;10415306;28;20236;-82
2023/05/02 16:02:10;;;;;;;1.45;0.90;;;14.90;88.90;;;;;;10415812;28;20032;-84
2023/05/02 16:07:11;;;;;;;2.72;1.00;;;14.90;88.40;;;;;;10409064;28;20053;-82
2023/05/02 16:12:13;;;;;;;2.80;0.75;;;14.90;88.00;;;;;;10406476;28;20029;-85
2023/05/02 16:17:14;;;;;;;1.55;0.82;;;14.80;87.90;;;;;;10385990;28;20044;-85
2023/05/02 16:22:14;;;;;;;1.95;0.90;;;14.90;87.80;;;;;;10406663;28;20493;-84
2023/05/02 16:27:15;;;;;;;2.35;0.85;;;15.00;88.30;;;;;;10398448;28;20037;-84
2023/05/02 16:32:16;;;;;;;0.82;0.60;;;14.80;88.40;;;;;;10402361;28;20068;-85
2023/05/02 16:37:17;;;;;;;1.80;0.70;;;14.90;88.80;;;;;;10381386;28;22018;-84
2023/05/02 16:42:19;;;;;;;0.98;0.50;;;14.80;89.00;;;;;;10393585;28;20028;-83
2023/05/02 16:47:20;;;;;;;1.58;0.82;;;14.90;89.40;;;;;;10398505;28;20493;-83
2023/05/02 16:52:21;;;;;;;1.63;0.70;;;15.10;90.00;;;;;;10403885;28;20026;-82
2023/05/02 16:57:22;;;;;;;2.65;1.30;;;14.70;90.00;;;;;;10406005;28;20033;-81
2023/05/02 17:02:23;;;;;;;1.05;0.88;;;14.80;90.10;;;;;;10411969;28;20454;-81
2023/05/02 17:07:24;;;;;;;3.28;0.75;;;14.70;90.20;;;;;;10407869;28;20036;-81
2023/05/02 17:12:28;;;;;;;4.13;0.80;;;14.60;89.30;;;;;;10409285;28;20068;-82
2023/05/02 17:17:29;;;;;;;2.42;1.27;;;14.00;88.90;;;;;;10404109;28;20067;-80
2023/05/02 17:22:30;;;;;;;5.32;1.20;;;14.00;89.20;;;;;;10425592;28;20079;-81
2023/05/02 17:27:31;;;;;;;4.03;1.20;;;14.20;89.60;;;;;;10412020;28;20032;-81
2023/05/02 17:32:33;;;;;;;6.57;1.38;;;14.20;88.90;;;;;;10408419;28;20026;-80
2023/05/02 17:37:35;;;;;;;5.18;1.30;;;14.10;88.60;;;;;;10395313;28;20460;-82
2023/05/02 17:42:35;;;;;;;3.08;1.20;;;14.10;88.90;;;;;;10401804;28;20029;-83
2023/05/02 17:47:36;;;;;;;3.40;1.33;;;14.20;88.90;;;;;;10404189;28;20378;-81
2023/05/02 17:52:37;;;;;;;3.75;1.20;;;14.20;89.20;;;;;;10399141;28;20109;-81
2023/05/02 17:57:38;;;;;;;3.58;1.42;;;14.20;89.60;;;;;;10409659;28;20065;-82
2023/05/02 18:02:38;;;;;;;5.50;1.40;;;14.30;89.40;;;;;;10404645;28;20025;-81
2023/05/02 18:07:39;;;;;;;3.83;1.42;;;14.30;89.60;;;;;;10410217;28;20037;-82
2023/05/02 18:12:40;;;;;;;6.53;1.45;;;14.70;90.10;;;;;;10407611;28;20119;-82
2023/05/02 18:17:40;;;;;;;5.53;2.25;;;14.30;90.20;;;;;;10416500;28;20116;-81
2023/05/02 18:22:41;;;;;;;5.63;1.75;;;14.20;90.40;;;;;;10408732;28;20045;-82
2023/05/02 18:27:42;;;;;;;4.93;1.40;;;14.30;90.50;;;;;;10419857;28;20377;-81
2023/05/02 18:32:42;;;;;;;3.60;1.92;;;14.20;90.60;;;;;;10410929;28;20061;-80
2023/05/02 18:37:43;;;;;;;7.45;2.03;;;14.30;90.80;;;;;;10414497;28;20022;-80
2023/05/02 18:42:44;;;;;;;3.47;1.33;;;14.20;91.00;;;;;;10422236;28;20021;-80
2023/05/02 18:47:44;;;;;;;4.45;1.42;;;14.50;91.20;;;;;;10431960;28;20021;-80
2023/05/02 18:52:45;;;;;;;5.20;1.42;;;14.20;91.30;;;;;;10415627;28;20026;-80
2023/05/02 18:57:45;;;;;;;7.55;1.90;;;14.30;91.30;;;;;;10421384;28;20042;-80
2023/05/02 19:02:46;;;;;;;5.18;1.50;;;14.60;91.40;;;;;;10436040;28;20029;-80
2023/05/02 19:07:47;;;;;;;5.25;1.73;;;14.20;91.40;;;;;;10398288;28;20021;-81
2023/05/02 19:12:47;;;;;;;3.80;1.52;;;14.20;91.40;;;;;;10404447;28;20034;-82
2023/05/02 19:17:48;;;;;;;3.78;1.63;;;14.10;91.50;;;;;;10407795;28;20373;-81
2023/05/02 19:22:50;;;;;;;3.28;1.33;;;14.10;91.50;;;;;;10399101;28;20056;-82
2023/05/02 19:27:51;;;;;;;3.20;1.27;;;14.10;91.60;;;;;;10403015;28;20045;-82
2023/05/02 19:32:51;;;;;;;3.70;1.65;;;14.00;91.60;;;;;;10401798;28;20057;-81
2023/05/02 19:37:52;;;;;;;5.55;1.13;;;14.00;91.60;;;;;;10396015;28;20121;-81
2023/05/02 19:42:53;;;;;;;3.42;1.10;;;14.00;91.60;;;;;;10402454;28;20043;-81
2023/05/02 19:47:53;;;;;;;6.13;1.92;;;14.00;91.60;;;;;;10397703;28;20014;-81
2023/05/02 19:52:54;;;;;;;4.47;1.30;;;14.00;91.70;;;;;;10395145;28;20093;-82
2023/05/02 19:57:54;;;;;;;4.88;1.08;;;14.00;91.70;;;;;;10408856;28;20088;-82
2023/05/02 20:02:55;;;;;;;4.03;1.00;;;13.90;91.70;;;;;;10402147;28;20037;-83
2023/05/02 20:07:56;;;;;;;4.38;1.58;;;13.90;91.70;;;;;;10393587;28;20493;-84
2023/05/02 20:12:57;;;;;;;1.20;1.00;;;13.90;91.70;;;;;;10397123;28;20029;-83
2023/05/02 20:17:57;;;;;;;3.08;1.10;;;14.30;91.80;;;;;;10420577;28;20033;-83
2023/05/02 20:22:58;;;;;;;1.88;0.88;;;13.80;91.70;;;;;;10412346;28;20021;-84
2023/05/02 20:27:58;;;;;;;1.80;1.20;;;13.80;91.70;;;;;;10417151;28;20148;-81
2023/05/02 20:32:59;;;;;;;1.90;1.10;;;13.70;91.70;;;;;;10390975;28;20053;-84
2023/05/02 20:38:00;;;;;;;1.98;1.10;;;14.20;91.80;;;;;;10390718;28;20083;-80
2023/05/02 20:43:01;;;;;;;3.35;1.20;;;14.20;91.80;;;;;;10392879;28;20041;-83
2023/05/02 20:48:01;;;;;;;2.83;1.00;;;13.70;91.70;;;;;;10394750;28;20021;-83
2023/05/02 20:53:03;;;;;;;4.68;1.25;;;13.60;91.70;;;;;;10392353;28;20029;-82
2023/05/02 20:58:03;;;;;;;2.55;1.35;;;13.60;91.70;;;;;;10393571;28;20056;-82
2023/05/02 21:03:04;;;;;;;4.32;1.58;;;13.60;91.70;;;;;;10387363;28;20396;-83
2023/05/02 21:08:05;;;;;;;3.67;1.45;;;13.60;91.70;;;;;;10390273;28;20033;-83
2023/05/02 21:13:06;;;;;;;3.58;1.23;;;13.70;91.70;;;;;;10412676;28;20041;-82
2023/05/02 21:18:06;;;;;;;3.38;1.20;;;13.50;91.70;;;;;;10390779;28;20068;-82
2023/05/02 21:23:10;;;;;;;3.00;1.25;;;13.50;91.60;;;;;;10389613;28;20060;-82
2023/05/02 21:28:11;;;;;;;1.95;1.20;;;13.60;91.70;;;;;;10404601;28;20500;-82
2023/05/02 21:33:14;;;;;;;4.50;1.40;;;13.40;91.60;;;;;;10388516;28;20026;-82
2023/05/02 21:38:14;;;;;;;4.63;1.20;;;13.70;91.70;;;;;;10391720;28;20017;-82
2023/05/02 21:43:15;;;;;;;2.85;0.98;;;13.70;91.70;;;;;;10394991;28;20531;-82
2023/05/02 21:48:16;;;;;;;1.88;1.15;;;13.30;91.50;;;;;;10409325;28;20025;-82
2023/05/02 21:53:17;;;;;;;2.38;1.40;;;13.60;91.60;;;;;;10389083;28;20025;-82
2023/05/02 21:58:18;;;;;;;4.00;1.13;;;13.30;91.50;;;;;;10392663;28;20036;-82
2023/05/02 22:03:19;;;;;;;2.13;1.30;;;13.20;91.50;;;;;;10393671;28;20392;-82
2023/05/02 22:08:20;;;;;;;3.92;1.17;;;13.20;91.50;;;;;;10389127;28;20405;-82
2023/05/02 22:13:22;;;;;;;2.67;1.38;;;13.40;91.80;;;;;;10392443;28;20480;-81
2023/05/02 22:18:23;;;;;;;1.85;1.10;;;13.10;91.50;;;;;;10391023;28;20087;-83
2023/05/02 22:23:24;;;;;;;4.53;1.45;;;13.10;91.40;;;;;;10396735;28;20540;-82
2023/05/02 22:28:25;;;;;;;1.70;1.00;;;13.10;91.40;;;;;;10390950;28;20041;-81
2023/05/02 22:33:26;;;;;;;2.15;1.20;;;13.00;91.40;;;;;;10402541;28;20029;-84
2023/05/02 22:38:27;;;;;;;3.85;1.02;;;13.50;91.50;;;;;;10403245;28;20446;-85
2023/05/02 22:43:27;;;;;;;2.38;1.42;;;13.40;91.50;;;;;;10409821;28;20022;-85
2023/05/02 22:48:28;;;;;;;1.75;1.10;;;13.00;91.40;;;;;;10414637;28;20048;-84
2023/05/02 22:53:29;;;;;;;1.70;0.93;;;13.00;91.40;;;;;;10408555;28;20052;-85
2023/05/02 22:58:29;;;;;;;2.67;1.70;;;12.90;91.30;;;;;;10410195;28;20520;-84
2023/05/02 23:03:30;;;;;;;2.97;1.17;;;12.90;91.30;;;;;;10405976;28;20108;-84
2023/05/02 23:08:31;;;;;;;1.33;1.00;;;13.30;91.40;;;;;;10407582;28;20026;-86
2023/05/02 23:13:31;;;;;;;2.13;1.20;;;12.80;91.30;;;;;;10399263;28;20040;-84
2023/05/02 23:18:32;;;;;;;4.93;1.25;;;12.80;91.30;;;;;;10407889;28;20382;-86
2023/05/02 23:23:32;;;;;;;1.67;0.95;;;12.70;91.20;;;;;;10404591;28;20452;-85
2023/05/02 23:28:33;;;;;;;2.05;1.15;;;12.70;91.20;;;;;;10408710;28;20021;-84
2023/05/02 23:33:34;;;;;;;1.83;1.13;;;12.70;91.20;;;;;;10407988;28;20032;-84
2023/05/02 23:38:35;;;;;;;1.17;1.00;;;12.80;91.20;;;;;;10406302;28;20028;-84
2023/05/02 23:43:36;;;;;;;2.03;0.75;;;12.90;91.20;;;;;;10410946;28;20056;-84
2023/05/02 23:48:37;;;;;;;4.60;1.10;;;13.10;91.20;;;;;;10400251;28;20106;-84
2023/05/02 23:53:38;;;;;;;1.35;1.08;;;13.40;91.30;;;;;;10401705;28;20073;-85
2023/05/02 23:58:38;;;;;;;1.90;1.20;;;12.50;91.00;;;;;;10406993;28;20024;-85
